Greenbrae, CA (94904)

3:38 AM PDT on March 26, 2017 (GMT -0700)
Bret Harte Heights | | Change Station

Elev 397 ft 37.96 °N, 122.53 °W | Updated 3 seconds ago

Partly Cloudy
Partly Cloudy
47.8 °F
Feels Like 48 °F
N
0.0
Wind Variable Wind from WNW
Gusts 0.0 mph

Today
High -- | Low -- °F
--% Chance of Precip.
Yesterday
High -- | Low -- °F
Precip. -- in
Pressure 30.11 in
Visibility 10.0 miles
Clouds Few 2000 ft
Windchill 48 °F
Dew Point 44 °F
Humidity 86%
Rainfall 0.00 in
Snow Depth Not available.
7:03 AM 7:27 PM
Waning Crescent, 4% visible
METAR KO69 261015Z AUTO 00000KT 10SM FEW020 07/06 A3011 RMK AO1
Pressure 30.11 in
Visibility 10.0 miles
Clouds Few 2000 ft
Windchill 48 °F
Dew Point 44 °F
Humidity 86%
Rainfall 0.00 in
Snow Depth Not available.
7:03 AM 7:27 PM
Waning Crescent, 4% visible
METAR KO69 261015Z AUTO 00000KT 10SM FEW020 07/06 A3011 RMK AO1

Get Severe Weather Alerts

Thanks for signing up!

Be on the lookout for a verification email in your inbox.

You'll start receiving the daily forecast at 8 AM.

×

10-Day Weather Forecast

Almanac

Astronomy

Mar. 26, 2017 Rise Set
Actual Time
Civil Twilight
Nautical Twilight
Astronomical Twilight
Moon
Length of Visible Light
Length of Day
Tomorrow will be .
, % of the Moon is Illuminated

Today's Extremes

State Highs State Lows

Community

WunderPhotos

Upload Photos

1,962,540 photos uploaded!

WunderBlog® & News

Nearby

Air Quality

  Air Quality AQ Index Pollutant
Not available.

Snow Depth

Station Depth Elevation

Earthquake Activity

City Distance Mag. Time & Date
Minimum magnitude displayed is 2.5.

Earthquake Activity

City Distance Mag. Time & Date
Minimum magnitude displayed is 2.5.

Coastal Water Temperatures

Place Temperature

Stations

Nearby Weather Stations

Station Location Temp. Windchill Dew Point Humidity Wind Precip. Elev Updated Type
                   

Watches & Warnings

There are currently no watches in effect.